createdAt,value
2022-12-03T00:00:16.042Z,80.26
2022-12-03T00:02:42.679Z,80.50
2022-12-03T00:05:10.140Z,80.24
2022-12-03T00:07:36.598Z,80.31
2022-12-03T00:10:04.294Z,80.09
2022-12-03T00:12:30.728Z,80.32
2022-12-03T00:14:57.407Z,80.17
2022-12-03T00:17:23.875Z,80.29
2022-12-03T00:19:50.423Z,80.43
2022-12-03T00:22:16.793Z,80.38
2022-12-03T00:24:43.103Z,80.57
2022-12-03T00:27:09.638Z,80.89
2022-12-03T00:29:36.091Z,80.64
2022-12-03T00:32:02.510Z,80.85
2022-12-03T00:34:28.934Z,80.99
2022-12-03T00:36:55.447Z,81.08
2022-12-03T00:39:21.989Z,81.13
2022-12-03T00:41:48.518Z,81.07
2022-12-03T00:44:14.854Z,81.05
2022-12-03T00:46:41.399Z,81.08
2022-12-03T00:49:08.790Z,81.15
2022-12-03T00:51:35.785Z,81.67
2022-12-03T00:54:02.292Z,81.66
2022-12-03T00:56:28.774Z,81.32
2022-12-03T00:58:55.197Z,81.24
2022-12-03T01:01:25.531Z,81.35
2022-12-03T01:03:51.951Z,81.32
2022-12-03T01:06:18.350Z,81.22
2022-12-03T01:08:44.794Z,81.52
2022-12-03T01:11:31.066Z,81.70
2022-12-03T01:13:57.424Z,81.48
2022-12-03T01:16:27.509Z,81.81
2022-12-03T01:18:55.034Z,81.53
2022-12-03T01:21:21.364Z,81.42
2022-12-03T01:23:47.763Z,81.71
2022-12-03T01:26:14.205Z,81.79
2022-12-03T01:28:41.986Z,81.78
2022-12-03T01:31:27.840Z,81.77
2022-12-03T01:33:54.341Z,81.85
2022-12-03T01:36:21.038Z,81.96
2022-12-03T01:38:48.700Z,81.93
2022-12-03T01:41:17.480Z,81.77
2022-12-03T01:43:44.118Z,82.00
2022-12-03T01:46:16.793Z,82.12
2022-12-03T01:48:44.065Z,81.99
2022-12-03T01:51:12.066Z,82.41
2022-12-03T01:53:38.492Z,82.34
2022-12-03T01:56:05.089Z,82.01
2022-12-03T01:58:31.678Z,82.45
2022-12-03T02:01:01.711Z,82.40
2022-12-03T02:03:28.424Z,82.73
2022-12-03T02:05:54.817Z,82.48
2022-12-03T02:08:31.957Z,82.42
2022-12-03T02:11:02.321Z,82.54
2022-12-03T02:13:28.909Z,82.65
2022-12-03T02:15:55.487Z,82.48
2022-12-03T02:18:21.880Z,82.59
2022-12-03T02:21:26.959Z,82.44
2022-12-03T02:24:07.590Z,82.80
2022-12-03T02:26:33.947Z,82.73
2022-12-03T02:29:01.262Z,82.72
2022-12-03T02:31:29.975Z,82.96
2022-12-03T02:33:56.652Z,82.72
2022-12-03T02:36:23.377Z,82.60
2022-12-03T02:38:50.995Z,82.97
2022-12-03T02:41:39.145Z,83.05
2022-12-03T02:44:08.327Z,82.85
2022-12-03T02:46:35.464Z,82.60
2022-12-03T02:49:03.623Z,82.77
2022-12-03T02:51:31.151Z,82.86
2022-12-03T02:53:57.939Z,82.77
2022-12-03T02:56:29.530Z,83.09
2022-12-03T02:59:00.499Z,83.02
2022-12-03T03:01:27.139Z,83.17
2022-12-03T03:03:54.014Z,83.12
2022-12-03T03:06:21.303Z,82.70
2022-12-03T03:08:48.152Z,83.09
2022-12-03T03:11:14.878Z,83.18
2022-12-03T03:13:41.318Z,83.00
2022-12-03T03:16:08.576Z,83.20
2022-12-03T03:18:35.809Z,83.04
2022-12-03T03:21:03.804Z,83.17
2022-12-03T03:23:30.437Z,83.41
2022-12-03T03:26:01.049Z,83.39
2022-12-03T03:28:30.156Z,83.07
2022-12-03T03:30:58.798Z,83.38
2022-12-03T03:33:25.196Z,83.15
2022-12-03T03:35:51.805Z,83.32
2022-12-03T03:38:20.414Z,83.17
2022-12-03T03:40:50.684Z,83.29
2022-12-03T03:43:17.594Z,83.12
2022-12-03T03:45:51.499Z,82.98
2022-12-03T03:48:18.744Z,83.14
2022-12-03T03:50:45.709Z,83.25
2022-12-03T03:53:12.989Z,83.44
2022-12-03T03:55:39.659Z,83.26
2022-12-03T03:58:15.037Z,83.18
2022-12-03T04:00:45.088Z,83.42
2022-12-03T04:03:23.869Z,83.08
2022-12-03T04:05:52.416Z,83.06
2022-12-03T04:08:19.353Z,83.36
2022-12-03T04:11:04.407Z,83.10
2022-12-03T04:13:30.979Z,83.18
2022-12-03T04:15:57.342Z,82.98
2022-12-03T04:18:42.325Z,83.13
2022-12-03T04:21:38.702Z,83.10
2022-12-03T04:24:06.559Z,83.10
2022-12-03T04:26:51.886Z,82.94
2022-12-03T04:29:19.672Z,83.03
2022-12-03T04:32:06.277Z,82.54
2022-12-03T04:35:08.397Z,82.68
2022-12-03T04:37:34.849Z,82.86
2022-12-03T04:40:01.293Z,82.72
2022-12-03T04:42:27.645Z,82.98
2022-12-03T04:44:54.313Z,82.84
2022-12-03T04:47:21.975Z,82.75
2022-12-03T04:49:50.765Z,82.80
2022-12-03T04:52:19.278Z,82.96
2022-12-03T04:54:45.688Z,82.70
2022-12-03T04:57:12.328Z,82.59
2022-12-03T04:59:38.869Z,82.66
2022-12-03T05:02:06.561Z,82.58
2022-12-03T05:04:33.610Z,82.65
2022-12-03T05:06:59.956Z,82.63
2022-12-03T05:09:26.275Z,82.96
2022-12-03T05:11:52.617Z,82.72
2022-12-03T05:14:19.154Z,83.01
2022-12-03T05:16:45.607Z,82.81
2022-12-03T05:19:12.103Z,82.80
2022-12-03T05:21:38.653Z,82.83
2022-12-03T05:24:05.773Z,82.66
2022-12-03T05:26:32.271Z,82.63
2022-12-03T05:28:58.670Z,82.89
2022-12-03T05:31:25.107Z,82.83
2022-12-03T05:33:51.554Z,82.67
2022-12-03T05:36:17.937Z,83.04
2022-12-03T05:38:44.393Z,83.02
2022-12-03T05:41:37.121Z,82.83
2022-12-03T05:44:03.484Z,83.12
2022-12-03T05:46:30.048Z,83.08
2022-12-03T05:48:57.485Z,83.44
2022-12-03T05:51:23.886Z,83.26
2022-12-03T05:53:50.210Z,83.45
2022-12-03T05:56:16.607Z,83.23
2022-12-03T05:58:43.032Z,82.96
2022-12-03T06:01:09.386Z,83.07
2022-12-03T06:03:36.269Z,83.10
2022-12-03T06:06:02.726Z,82.97
2022-12-03T06:08:29.082Z,82.74
2022-12-03T06:10:55.479Z,82.59
2022-12-03T06:13:21.837Z,82.89
2022-12-03T06:15:48.261Z,82.69
2022-12-03T06:18:14.814Z,82.69
2022-12-03T06:20:42.215Z,82.66
2022-12-03T06:23:08.779Z,82.55
2022-12-03T06:25:35.218Z,82.26
2022-12-03T06:28:01.544Z,82.28
2022-12-03T06:30:27.981Z,82.41
2022-12-03T06:32:54.647Z,82.38
2022-12-03T06:35:20.966Z,82.07
2022-12-03T06:37:47.302Z,82.39
2022-12-03T06:40:14.318Z,82.27
2022-12-03T06:42:40.667Z,82.04
2022-12-03T06:45:07.140Z,82.17
2022-12-03T06:47:33.484Z,81.95
2022-12-03T06:50:02.158Z,82.39
2022-12-03T06:52:28.661Z,81.93
2022-12-03T06:54:55.214Z,81.84
2022-12-03T06:57:31.238Z,81.86
2022-12-03T06:59:57.814Z,82.17
2022-12-03T07:02:24.528Z,81.81
2022-12-03T07:04:50.975Z,81.84
2022-12-03T07:07:17.301Z,81.97
2022-12-03T07:09:44.782Z,81.88
2022-12-03T07:12:11.146Z,81.69
2022-12-03T07:14:42.314Z,81.68
2022-12-03T07:17:08.606Z,81.80
2022-12-03T07:19:36.772Z,81.80
2022-12-03T07:22:03.307Z,81.69
2022-12-03T07:24:33.552Z,81.99
2022-12-03T07:26:59.921Z,81.75
2022-12-03T07:29:26.347Z,81.79
2022-12-03T07:31:52.701Z,81.90
2022-12-03T07:34:19.048Z,82.07
2022-12-03T07:36:45.370Z,81.80
2022-12-03T07:39:13.258Z,81.71
2022-12-03T07:41:39.594Z,81.73
2022-12-03T07:44:12.411Z,81.96
2022-12-03T07:46:40.549Z,81.74
2022-12-03T07:49:09.157Z,81.69
2022-12-03T07:51:35.874Z,81.88
2022-12-03T07:54:02.183Z,81.93
2022-12-03T07:56:28.518Z,82.36
2022-12-03T07:58:57.303Z,82.36
2022-12-03T08:01:32.187Z,82.38
2022-12-03T08:03:58.726Z,82.27
2022-12-03T08:06:25.033Z,82.38
2022-12-03T08:08:51.436Z,82.65
2022-12-03T08:11:17.772Z,82.66
2022-12-03T08:13:44.127Z,82.64
2022-12-03T08:16:25.732Z,82.62
2022-12-03T08:18:54.885Z,82.68
2022-12-03T08:21:22.710Z,82.69
2022-12-03T08:23:49.214Z,82.88
2022-12-03T08:26:26.112Z,82.63
2022-12-03T08:28:53.429Z,82.96
2022-12-03T08:31:28.037Z,82.71
2022-12-03T08:34:15.343Z,82.73
2022-12-03T08:36:41.647Z,83.07
2022-12-03T08:39:25.973Z,82.92
2022-12-03T08:42:15.597Z,82.81
2022-12-03T08:44:41.999Z,83.09
2022-12-03T08:47:35.239Z,82.85
2022-12-03T08:50:32.217Z,82.83
2022-12-03T08:53:14.631Z,82.63
2022-12-03T08:55:54.065Z,82.79
2022-12-03T08:58:38.099Z,83.02
2022-12-03T09:01:10.542Z,82.78
2022-12-03T09:03:50.383Z,82.89
2022-12-03T09:06:17.077Z,82.42
2022-12-03T09:08:43.655Z,82.42
2022-12-03T09:11:12.027Z,82.39
2022-12-03T09:13:38.513Z,82.33
2022-12-03T09:16:05.146Z,82.28
2022-12-03T09:18:32.429Z,82.25
2022-12-03T09:20:58.839Z,82.26
2022-12-03T09:23:25.137Z,82.14
2022-12-03T09:25:51.430Z,82.19
2022-12-03T09:28:17.760Z,82.11
2022-12-03T09:30:44.075Z,82.28
2022-12-03T09:33:10.535Z,82.11
2022-12-03T09:35:37.348Z,81.85
2022-12-03T09:38:03.684Z,81.69
2022-12-03T09:40:30.131Z,81.64
2022-12-03T09:42:58.705Z,81.77
2022-12-03T09:45:27.191Z,81.81
2022-12-03T09:47:54.913Z,81.34
2022-12-03T09:50:25.223Z,81.71
2022-12-03T09:52:54.787Z,81.42
2022-12-03T09:55:24.088Z,81.08
2022-12-03T09:57:52.655Z,80.57
2022-12-03T10:00:25.490Z,80.37
2022-12-03T10:02:54.722Z,80.43
2022-12-03T10:05:22.521Z,80.54
2022-12-03T10:07:50.591Z,80.13
2022-12-03T10:10:20.870Z,80.50
2022-12-03T10:12:47.607Z,80.65
2022-12-03T10:15:17.872Z,80.66
2022-12-03T10:17:46.272Z,81.09
2022-12-03T10:20:16.934Z,81.13
2022-12-03T10:22:43.467Z,81.07
2022-12-03T10:25:15.842Z,81.06
2022-12-03T10:27:42.923Z,81.36
2022-12-03T10:30:19.586Z,81.27
2022-12-03T10:32:50.323Z,81.41
2022-12-03T10:35:24.646Z,81.84
2022-12-03T10:38:23.048Z,81.99
2022-12-03T10:40:49.597Z,82.26
2022-12-03T10:43:25.138Z,82.69
2022-12-03T10:46:04.853Z,82.45
2022-12-03T10:48:31.414Z,82.43
2022-12-03T10:51:21.330Z,82.24
2022-12-03T10:53:49.238Z,82.21
2022-12-03T10:56:26.443Z,81.84
2022-12-03T10:58:53.116Z,81.81
2022-12-03T11:01:24.755Z,81.68
2022-12-03T11:03:52.444Z,81.86
2022-12-03T11:06:21.775Z,81.45
2022-12-03T11:08:57.514Z,81.57
2022-12-03T11:11:30.839Z,81.34
2022-12-03T11:13:59.218Z,81.39
2022-12-03T11:16:51.798Z,81.06
2022-12-03T11:19:36.438Z,81.14
2022-12-03T11:22:05.881Z,81.26
2022-12-03T11:24:34.770Z,81.32
2022-12-03T11:27:01.867Z,81.22
2022-12-03T11:29:48.820Z,81.30
2022-12-03T11:32:45.204Z,81.11
2022-12-03T11:35:23.856Z,81.01
2022-12-03T11:37:50.326Z,80.87
2022-12-03T11:40:18.119Z,80.84
2022-12-03T11:42:46.609Z,80.82
2022-12-03T11:45:22.642Z,80.58
2022-12-03T11:47:58.240Z,80.50
2022-12-03T11:50:39.064Z,80.47
2022-12-03T11:53:26.861Z,80.25
2022-12-03T11:56:12.301Z,80.02
2022-12-03T11:58:42.290Z,80.16
2022-12-03T12:01:08.956Z,80.08
2022-12-03T12:03:47.458Z,79.65
2022-12-03T12:06:20.400Z,79.75
2022-12-03T12:08:49.746Z,79.98
2022-12-03T12:11:20.118Z,79.85
2022-12-03T12:13:53.409Z,79.79
2022-12-03T12:16:58.438Z,79.81
2022-12-03T12:19:29.644Z,79.87
2022-12-03T12:22:12.486Z,79.66
2022-12-03T12:24:47.768Z,79.92
2022-12-03T12:27:29.501Z,79.81
2022-12-03T12:29:58.607Z,79.91
2022-12-03T12:32:34.640Z,79.93
2022-12-03T12:35:18.876Z,79.95
2022-12-03T12:38:00.826Z,79.60
2022-12-03T12:40:30.343Z,79.67
2022-12-03T12:43:09.942Z,79.85
2022-12-03T12:45:46.671Z,79.95
2022-12-03T12:48:29.006Z,79.71
2022-12-03T12:51:11.211Z,80.15
2022-12-03T12:53:39.524Z,79.84
2022-12-03T12:56:18.847Z,79.81
2022-12-03T12:58:48.576Z,79.52
2022-12-03T13:01:37.437Z,79.48
2022-12-03T13:04:15.689Z,79.44
2022-12-03T13:06:47.122Z,79.92
2022-12-03T13:09:24.506Z,79.82
2022-12-03T13:12:06.370Z,80.19
2022-12-03T13:14:43.851Z,79.85
2022-12-03T13:17:22.451Z,79.93
2022-12-03T13:19:53.998Z,80.10
2022-12-03T13:22:28.158Z,79.91
2022-12-03T13:25:00.173Z,80.16
2022-12-03T13:27:36.762Z,80.25
2022-12-03T13:30:21.086Z,80.34
2022-12-03T13:32:47.533Z,80.65
2022-12-03T13:35:24.878Z,80.41
2022-12-03T13:37:51.487Z,80.27
2022-12-03T13:40:27.654Z,80.26
2022-12-03T13:42:55.074Z,80.52
2022-12-03T13:45:24.580Z,80.31
2022-12-03T13:47:57.453Z,80.52
2022-12-03T13:50:44.931Z,80.62
2022-12-03T13:53:11.359Z,80.68
2022-12-03T13:55:45.007Z,80.93
2022-12-03T13:58:11.350Z,80.71
2022-12-03T14:00:37.862Z,81.26
2022-12-03T14:03:05.674Z,81.68
2022-12-03T14:05:32.110Z,81.70
2022-12-03T14:08:01.800Z,81.89
2022-12-03T14:10:29.431Z,81.87
2022-12-03T14:12:56.611Z,81.89
2022-12-03T14:15:24.905Z,81.75
2022-12-03T14:17:51.322Z,82.12
2022-12-03T14:20:18.598Z,81.98
2022-12-03T14:22:45.248Z,82.13
2022-12-03T14:25:15.682Z,81.90
2022-12-03T14:27:42.247Z,81.83
2022-12-03T14:30:09.510Z,82.06
2022-12-03T14:32:37.221Z,82.02
2022-12-03T14:35:08.317Z,82.11
2022-12-03T14:37:36.331Z,81.71
2022-12-03T14:40:05.777Z,81.80
2022-12-03T14:42:32.147Z,81.56
2022-12-03T14:44:58.505Z,81.73
2022-12-03T14:47:25.049Z,81.77
2022-12-03T14:49:52.544Z,81.60
2022-12-03T14:52:20.018Z,81.55
2022-12-03T14:54:46.515Z,81.34
2022-12-03T14:57:15.724Z,81.41
2022-12-03T14:59:46.859Z,81.14
2022-12-03T15:02:13.745Z,81.16
2022-12-03T15:04:41.147Z,81.06
2022-12-03T15:07:08.816Z,81.01
2022-12-03T15:09:36.514Z,81.24
2022-12-03T15:12:03.889Z,81.05
2022-12-03T15:14:30.307Z,81.35
2022-12-03T15:16:56.876Z,80.96
2022-12-03T15:19:23.261Z,81.21
2022-12-03T15:21:56.532Z,81.06
2022-12-03T15:24:27.606Z,80.99
2022-12-03T15:26:54.099Z,81.05
2022-12-03T15:29:21.334Z,81.23
2022-12-03T15:31:47.707Z,81.10
2022-12-03T15:34:23.170Z,81.10
2022-12-03T15:36:50.359Z,80.88
2022-12-03T15:39:16.877Z,81.16
2022-12-03T15:41:48.102Z,81.03
2022-12-03T15:44:14.522Z,81.10
2022-12-03T15:46:52.324Z,81.09
2022-12-03T15:49:19.206Z,81.20
2022-12-03T15:51:45.896Z,81.22
2022-12-03T15:54:12.466Z,81.34
2022-12-03T15:56:38.922Z,81.16
2022-12-03T15:59:05.359Z,81.53
2022-12-03T16:01:32.111Z,81.17
2022-12-03T16:03:58.540Z,81.29
2022-12-03T16:06:24.846Z,81.33
2022-12-03T16:08:51.158Z,81.60
2022-12-03T16:11:17.565Z,81.51
2022-12-03T16:13:47.228Z,81.59
2022-12-03T16:16:13.889Z,81.78
2022-12-03T16:18:47.912Z,81.76
2022-12-03T16:21:14.481Z,81.84
2022-12-03T16:23:45.456Z,81.73
2022-12-03T16:26:11.973Z,81.78
2022-12-03T16:28:38.294Z,81.78
2022-12-03T16:31:04.822Z,81.85
2022-12-03T16:33:45.555Z,81.76
2022-12-03T16:36:20.240Z,81.85
2022-12-03T16:38:46.727Z,81.92
2022-12-03T16:41:13.272Z,81.93
2022-12-03T16:43:41.229Z,81.83
2022-12-03T16:46:17.167Z,81.88
2022-12-03T16:48:43.617Z,81.87
2022-12-03T16:51:10.468Z,81.91
2022-12-03T16:53:41.658Z,81.85
2022-12-03T16:56:08.698Z,82.08
2022-12-03T16:58:35.151Z,81.93
2022-12-03T17:01:01.960Z,81.88
2022-12-03T17:03:33.565Z,82.02
2022-12-03T17:06:07.142Z,82.40
2022-12-03T17:08:33.735Z,81.98
2022-12-03T17:11:00.988Z,81.96
2022-12-03T17:13:38.868Z,81.88
2022-12-03T17:16:08.129Z,81.98
2022-12-03T17:18:37.084Z,82.05
2022-12-03T17:21:03.633Z,81.96
2022-12-03T17:23:29.934Z,82.11
2022-12-03T17:25:56.363Z,82.10
2022-12-03T17:28:22.719Z,82.05
2022-12-03T17:30:49.245Z,82.09
2022-12-03T17:33:15.804Z,82.19
2022-12-03T17:35:43.203Z,82.40
2022-12-03T17:38:09.553Z,82.26
2022-12-03T17:40:35.919Z,82.38
2022-12-03T17:43:02.247Z,82.24
2022-12-03T17:45:28.760Z,82.28
2022-12-03T17:48:04.727Z,82.08
2022-12-03T17:50:31.298Z,82.19
2022-12-03T17:52:59.013Z,82.21
2022-12-03T17:55:41.211Z,82.23
2022-12-03T17:58:10.788Z,82.71
2022-12-03T18:00:37.158Z,82.54
2022-12-03T18:03:03.578Z,82.49
2022-12-03T18:05:30.005Z,82.70
2022-12-03T18:07:56.564Z,82.55
2022-12-03T18:10:22.919Z,82.76
2022-12-03T18:12:49.255Z,82.77
2022-12-03T18:15:15.613Z,82.64
2022-12-03T18:17:41.950Z,82.86
2022-12-03T18:20:08.453Z,82.31
2022-12-03T18:22:35.353Z,82.25
2022-12-03T18:25:02.115Z,82.31
2022-12-03T18:27:28.457Z,82.37
2022-12-03T18:29:58.119Z,82.32
2022-12-03T18:32:29.689Z,82.50
2022-12-03T18:34:57.294Z,82.34
2022-12-03T18:37:26.723Z,82.24
2022-12-03T18:39:53.672Z,82.42
2022-12-03T18:42:21.949Z,82.35
2022-12-03T18:44:50.212Z,82.44
2022-12-03T18:47:20.512Z,82.33
2022-12-03T18:49:47.273Z,82.42
2022-12-03T18:52:15.312Z,82.33
2022-12-03T18:54:41.776Z,82.71
2022-12-03T18:57:08.771Z,82.33
2022-12-03T18:59:35.247Z,82.36
2022-12-03T19:02:01.728Z,82.12
2022-12-03T19:04:28.227Z,82.05
2022-12-03T19:06:56.266Z,82.02
2022-12-03T19:09:22.878Z,81.82
2022-12-03T19:11:49.396Z,81.72
2022-12-03T19:14:15.690Z,81.63
2022-12-03T19:16:45.580Z,81.49
2022-12-03T19:19:12.063Z,81.69
2022-12-03T19:21:38.470Z,81.88
2022-12-03T19:24:23.789Z,81.88
2022-12-03T19:26:54.602Z,81.70
2022-12-03T19:29:23.166Z,81.86
2022-12-03T19:31:51.200Z,81.63
2022-12-03T19:34:18.009Z,81.93
2022-12-03T19:36:44.415Z,81.86
2022-12-03T19:39:11.164Z,81.94
2022-12-03T19:41:37.612Z,81.73
2022-12-03T19:44:10.600Z,81.88
2022-12-03T19:46:37.429Z,81.84
2022-12-03T19:49:05.303Z,81.73
2022-12-03T19:51:35.365Z,81.64
2022-12-03T19:54:06.736Z,81.86
2022-12-03T19:56:33.548Z,81.75
2022-12-03T19:59:12.334Z,81.44
2022-12-03T20:01:44.183Z,81.45
2022-12-03T20:04:11.585Z,81.20
2022-12-03T20:06:39.744Z,81.23
2022-12-03T20:09:12.657Z,81.08
2022-12-03T20:11:41.140Z,81.34
2022-12-03T20:14:15.542Z,81.13
2022-12-03T20:16:42.467Z,81.24
2022-12-03T20:19:19.689Z,81.00
2022-12-03T20:21:46.462Z,81.06
2022-12-03T20:24:15.551Z,81.00
2022-12-03T20:26:42.393Z,80.88
2022-12-03T20:29:18.017Z,81.12
2022-12-03T20:31:44.465Z,81.03
2022-12-03T20:34:11.218Z,81.08
2022-12-03T20:36:37.822Z,81.39
2022-12-03T20:39:06.517Z,81.25
2022-12-03T20:41:35.571Z,81.14
2022-12-03T20:44:03.035Z,81.26
2022-12-03T20:46:31.313Z,81.09
2022-12-03T20:48:58.530Z,81.09
2022-12-03T20:51:27.606Z,80.92
2022-12-03T20:53:55.374Z,81.18
2022-12-03T20:56:24.750Z,81.05
2022-12-03T20:58:51.168Z,81.09
2022-12-03T21:01:26.495Z,80.89
2022-12-03T21:03:55.339Z,81.05
2022-12-03T21:06:23.174Z,81.02
2022-12-03T21:08:58.499Z,80.96
2022-12-03T21:11:30.276Z,81.11
2022-12-03T21:13:57.714Z,81.05
2022-12-03T21:16:59.021Z,80.96
2022-12-03T21:19:18.254Z,80.75
2022-12-03T21:21:44.629Z,80.93
2022-12-03T21:24:12.431Z,81.22
2022-12-03T21:26:39.291Z,81.13
2022-12-03T21:29:05.795Z,81.33
2022-12-03T21:31:32.400Z,81.20
2022-12-03T21:33:59.031Z,81.08
2022-12-03T21:36:25.662Z,81.21
2022-12-03T21:38:52.706Z,81.11
2022-12-03T21:41:19.279Z,81.14
2022-12-03T21:43:45.898Z,81.00
2022-12-03T21:47:12.464Z,81.05
2022-12-03T21:49:04.129Z,81.07
2022-12-03T21:51:30.606Z,81.03
2022-12-03T21:53:56.981Z,81.02
2022-12-03T21:56:23.527Z,80.89
2022-12-03T21:58:52.879Z,81.08
2022-12-03T22:01:24.089Z,80.96
2022-12-03T22:03:50.745Z,81.26
2022-12-03T22:06:17.959Z,81.14
2022-12-03T22:08:44.470Z,81.27
2022-12-03T22:11:18.922Z,81.15
2022-12-03T22:13:45.740Z,81.12
2022-12-03T22:16:15.861Z,81.09
2022-12-03T22:18:42.893Z,80.98
2022-12-03T22:21:12.043Z,80.94
2022-12-03T22:23:39.147Z,81.20
2022-12-03T22:26:14.458Z,81.21
2022-12-03T22:28:46.468Z,81.08
2022-12-03T22:31:13.721Z,81.28
2022-12-03T22:33:40.601Z,81.37
2022-12-03T22:36:18.051Z,81.17
2022-12-03T22:38:46.786Z,81.40
2022-12-03T22:41:14.479Z,81.36
2022-12-03T22:43:41.151Z,81.47
2022-12-03T22:46:12.117Z,81.39
2022-12-03T22:48:39.538Z,81.40
2022-12-03T22:51:13.119Z,81.47
2022-12-03T22:53:39.475Z,81.51
2022-12-03T22:56:06.178Z,81.42
2022-12-03T22:58:32.597Z,81.33
2022-12-03T23:01:02.924Z,81.43
2022-12-03T23:03:30.445Z,81.41
2022-12-03T23:05:57.799Z,81.35
2022-12-03T23:08:24.189Z,81.55
2022-12-03T23:10:52.541Z,81.59
2022-12-03T23:13:20.864Z,81.49
2022-12-03T23:15:49.219Z,81.65
2022-12-03T23:18:16.414Z,81.56
2022-12-03T23:20:45.166Z,81.72
2022-12-03T23:23:11.710Z,81.61
2022-12-03T23:25:38.345Z,81.59
2022-12-03T23:28:05.470Z,81.52
2022-12-03T23:30:36.055Z,81.57
2022-12-03T23:33:03.159Z,81.49
2022-12-03T23:35:29.557Z,81.73
2022-12-03T23:37:55.861Z,81.61
2022-12-03T23:40:22.251Z,81.75
2022-12-03T23:42:48.914Z,81.72
2022-12-03T23:45:15.644Z,81.84
2022-12-03T23:47:42.215Z,81.78
2022-12-03T23:50:09.032Z,81.92
2022-12-03T23:52:36.434Z,81.72
2022-12-03T23:55:03.148Z,81.86
2022-12-03T23:57:29.681Z,82.05
2022-12-03T23:59:56.597Z,81.81
